Flight Track Log - Related Links

Times and Time Zones

All times are in EDT time to prevent confusion due to time zone crossing. See the N217TM flight status page for this flight to view local times or setup timezone preferences in your user account.

Time Position Orientation Groundspeed Altitude Reporting Facility
EDT Latitude Longitude Course Direction KTS MPH feet Rate Location/Type
Wed 04:48:37 PM 36.2361 -95.8736 163° South 132 152 2,400  Level Kansas City Center
Wed 04:49:09 PM 36.2364 -95.8503 89° East 125 144 3,200 1,532 Climbing Kansas City Center
Wed 04:50:11 PM 36.2314 -95.8025 97° East 135 155 4,800 1,210 Climbing Kansas City Center
Wed 04:51:13 PM 36.2250 -95.7483 98° East 154 177 5,700 1,258 Climbing Kansas City Center
Wed 04:52:15 PM 36.2186 -95.6900 98° East 170 196 7,400 1,790 Climbing Kansas City Center
Wed 04:53:00 PM 35.8182 -95.9616 163° South  Level Estimated
Wed 04:53:17 PM 36.1808 -95.6486 139° Southeast 184 212 9,400  Level Kansas City Center
Wed 04:54:19 PM 36.1311 -95.6397 172° South 181 208 11,000 1,597 Climbing Kansas City Center
Wed 04:55:21 PM 36.0808 -95.6333 174° South 180 207 12,700 1,597 Climbing Kansas City Center
Wed 04:56:23 PM 36.0286 -95.6258 173° South 186 214 14,300 1,500 Climbing Kansas City Center
Wed 04:57:25 PM 35.9769 -95.6178 173° South 187 215 15,800 1,452 Climbing Kansas City Center
Wed 04:58:27 PM 35.9233 -95.6092 173° South 191 220 17,300 1,355 Climbing Kansas City Center
Wed 04:59:29 PM 35.8556 -95.5994 173° South 200 230 18,600 1,161 Climbing Kansas City Center
Wed 05:00:31 PM 35.7897 -95.5953 177° South 230 265 19,700 720 Climbing Kansas City Center
Wed 05:01:34 PM 35.7183 -95.6167 194° South 257 296 20,100 192 Climbing Kansas City Center
Wed 05:02:36 PM 35.6400 -95.6414 194° South 281 323 20,100  Level Kansas City Center
Wed 05:03:38 PM 35.5572 -95.6661 194° South 298 343 20,100  Level Kansas City Center
Wed 05:04:40 PM 35.4769 -95.6917 195° South 299 344 20,100  Level Kansas City Center
Wed 05:05:42 PM 35.3964 -95.7161 194° South 298 343 20,100  Level Kansas City Center
Wed 05:07:03 PM 35.2847 -95.7553 196° South 294 338 20,100  Level Fort Worth Center
Wed 05:08:03 PM 35.2058 -95.7772 193° South 294 338 20,100  Level Fort Worth Center
Wed 05:09:03 PM 35.1269 -95.8042 196° South 294 338 20,100  Level Fort Worth Center
Wed 05:10:03 PM 35.0458 -95.8261 192° South 294 338 20,100  Level Fort Worth Center
Wed 05:11:03 PM 34.9689 -95.8503 194° South 294 338 20,100  Level Fort Worth Center
Wed 05:12:03 PM 34.8836 -95.8747 193° South 299 344 20,100  Level Fort Worth Center
Wed 05:13:03 PM 34.8047 -95.8961 193° South 305 351 20,100  Level Fort Worth Center
Wed 05:14:03 PM 34.7258 -95.9203 194° South 300 345 20,100  Level Fort Worth Center
Wed 05:15:03 PM 34.6447 -95.9444 194° South 295 339 20,100 -50 Level Fort Worth Center
Wed 05:16:03 PM 34.5636 -95.9661 192° South 295 339 20,000 -250 Descending Fort Worth Center
Wed 05:17:03 PM 34.4844 -95.9900 194° South 295 339 19,600 -500 Descending Fort Worth Center
Wed 05:18:03 PM 34.4033 -96.0117 192° South 301 346 19,000 -500 Descending Fort Worth Center
Wed 05:19:03 PM 34.3203 -96.0381 195° South 301 346 18,600 -1,150 Descending Fort Worth Center
Wed 05:20:03 PM 34.2369 -96.0619 193° South 301 346 16,700 -1,950 Descending Fort Worth Center
Wed 05:21:03 PM 34.1539 -96.0833 192° South 307 353 14,700 -2,100 Descending Fort Worth Center
Wed 05:22:03 PM 34.0664 -96.1072 193° South 307 353 12,500 -2,100 Descending Fort Worth Center
Wed 05:23:03 PM 33.9853 -96.1311 194° South 297 342 10,500 -1,200 Descending Fort Worth Center
Wed 05:24:03 PM 33.9125 -96.1519 193° South 291 335 10,100 -200 Descending Fort Worth Center
Wed 05:25:03 PM 33.8458 -96.1706 193° South 270 311 10,100 -50 Level Fort Worth Center
Wed 05:26:03 PM 33.7772 -96.1889 193° South 255 293 10,000 -50 Descending Fort Worth Center
Wed 05:27:03 PM 33.7106 -96.2100 195° South 249 287 10,000 -100 Level Fort Worth Center
Wed 05:28:03 PM 33.6439 -96.2283 193° South 249 287 9,800 -450 Descending Fort Worth Center
Wed 05:29:03 PM 33.5753 -96.2467 193° South 254 292 9,100 -750 Descending Fort Worth Center
Wed 05:30:03 PM 33.5044 -96.2675 194° South 260 299 8,300 -900 Descending Fort Worth Center
Wed 05:31:03 PM 33.4400 -96.2858 193° South 260 299 7,300 -800 Descending Fort Worth Center
Wed 05:32:03 PM 33.3714 -96.3067 194° South 255 293 6,700 -600 Descending Fort Worth Center
Wed 05:33:03 PM 33.3025 -96.3247 192° South 255 293 6,100 -450 Descending Fort Worth Center
Wed 05:34:03 PM 33.2464 -96.3578 206° Southwest 246 283 5,800 -350 Descending Fort Worth Center
Wed 05:35:03 PM 33.1989 -96.4031 219° Southwest 229 264 5,400 -550 Descending Fort Worth Center
Wed 05:36:03 PM 33.1425 -96.4211 195° South 212 244 4,700 -650 Descending Fort Worth Center
Wed 05:37:03 PM 33.0886 -96.4414 197° South 212 244 4,100 -550 Descending Fort Worth Center
Wed 05:38:03 PM 33.0386 -96.4619 199° South 201 231 3,600 -400 Descending Fort Worth Center
Wed 05:39:03 PM 32.9886 -96.4797 197° South 201 231 3,300 -250 Descending Fort Worth Center
Wed 05:40:03 PM 32.9428 -96.4925 193° South 196 226 3,100 -150 Descending Fort Worth Center
Wed 05:41:03 PM 32.8908 -96.5128 198° South 196 226 3,000 1,450 Descending Fort Worth Center
Wed 05:42:03 PM 32.8386 -96.5308 196° South 196 226 6,000 1,500 Climbing Fort Worth Center
Wed 05:43:03 PM 32.7867 -96.5511 198° South 196 226 6,000  Level Fort Worth Center
Wed 05:44:03 PM 32.7344 -96.5689 196° South 196 226 6,000  Level Fort Worth Center
Wed 05:45:03 PM 32.7242 -96.5739 202° Southwest 196 226 6,000  Level Fort Worth Center

Login

Don't have an account? Register now (free) for customized features, flight alerts, and more!